Terminal Aerodrome Forecast
Issued by NWS Huntsville, AL

Home | Current Version | Previous Version | Text Only | Print | Product List | Glossary On
Versions: 1 2 3 4 5 6 7 8 9 10 11 12 13 14 15 16 17 18 19 20 21 22 23 24 25 26 27 28 29 30 31 32 33 34 35 36 37 38 39 40 41 42 43
000
FTUS44 KHUN 061509 AAB
TAFHSV
TAF AMD
KHSV 061509Z 0615/0712 25006KT P6SM BKN015 BKN050
      TEMPO 0616/0617 SCT025 BKN060
     FM061700 26007KT P6SM SCT025 SCT250
     FM070100 20005KT P6SM SCT030
     FM070600 20003KT P6SM FEW015 SCT030 BKN090=

USA.gov is the U.S. government's official web portal to all federal, state and local government web resources and services.